首页
METAR-TAF:

METAR-TAF

机场 :

Yellowstone Lake, 怀俄明州, 美国

纬度: 44-32-40N, 经度: 110-25-16W, 海拔: 2388米

当前天气观测

该预报发布于52分钟前的15:56 UTC
风速3节,风向
温度 11°C
湿度 62%
气压 1021 hPa

METAR: KP60 261556Z AUTO 10003KT 11/04 A3015 RMK AO1 SLP153 T01060044

时间: 10:48 (16:48 UTC)


TAF: 丢失

超过4000个机场的气象观测和天气预报(METAR&TAF报告)。

可查询的气象台以黄色和红色小点在地图上表示。

将鼠标移到小点上方,可查看气象台名称。

然后点击查看天气观测和预报。

如需切换地图:点击带黑十字的绿色按钮放大地图;点击带横线的绿色按钮缩小地图;或者点击绿色箭头查看邻近地区的地图。


METAR-TAF: